Time,TemperatureF,DewpointF,PressureIn,WindDirection,WindDirectionDegrees,WindSpeedMPH,WindSpeedGustMPH,Humidity,HourlyPrecipIn,Conditions,Clouds,dailyrainin,SoftwareType,DateUTC
2013-05-20 00:00:00,74.9,69.7,29.88,SW,225,7.0,14.0,84,0.00,,---,0.00,VWS V13.01,2013-05-20 05:00:00,
2013-05-20 00:30:00,74.3,69.5,29.87,SW,225,5.0,12.0,85,0.00,,---,0.00,VWS V13.01,2013-05-20 05:30:00,
2013-05-20 01:00:00,73.6,69.5,29.87,SW,225,4.0,11.0,87,0.00,,---,0.00,VWS V13.01,2013-05-20 06:00:00,
2013-05-20 01:30:00,72.9,69.1,29.87,SW,225,3.0,8.0,88,0.00,,---,0.00,VWS V13.01,2013-05-20 06:30:00,
2013-05-20 02:00:00,72.1,68.7,29.87,SW,225,2.0,5.0,89,0.00,,---,0.00,VWS V13.01,2013-05-20 07:00:00,
2013-05-20 02:30:00,71.3,68.2,29.87,SW,225,2.0,5.0,90,0.00,,---,0.00,VWS V13.01,2013-05-20 07:30:00,
2013-05-20 03:00:00,71.1,68.3,29.88,SW,225,3.0,7.0,91,0.00,,---,0.00,VWS V13.01,2013-05-20 08:00:00,
2013-05-20 03:30:00,70.9,68.2,29.88,SW,225,2.0,6.0,91,0.00,,---,0.00,VWS V13.01,2013-05-20 08:30:00,
2013-05-20 04:00:00,70.5,68.1,29.88,SW,225,3.0,7.0,92,0.00,,---,0.00,VWS V13.01,2013-05-20 09:00:00,
2013-05-20 04:30:00,70.0,67.9,29.89,SW,225,3.0,7.0,93,0.00,,---,0.00,VWS V13.01,2013-05-20 09:30:00,
2013-05-20 05:00:00,69.7,67.9,29.89,SW,225,4.0,11.0,94,0.00,,---,0.00,VWS V13.01,2013-05-20 10:00:00,
2013-05-20 05:30:00,69.8,68.0,29.91,SW,225,4.0,11.0,94,0.00,,---,0.00,VWS V13.01,2013-05-20 10:30:00,
2013-05-20 06:00:00,70.3,68.5,29.91,SW,225,5.0,11.0,94,0.00,,---,0.00,VWS V13.01,2013-05-20 11:00:00,
2013-05-20 06:30:00,71.0,68.9,29.92,SSW,202,5.0,13.0,93,0.00,,---,0.00,VWS V13.01,2013-05-20 11:30:00,
2013-05-20 07:00:00,71.9,69.8,29.94,SSW,202,3.0,9.0,93,0.00,,---,0.00,VWS V13.01,2013-05-20 12:00:00,
2013-05-20 07:30:00,73.0,70.2,29.94,SSW,202,4.0,10.0,91,0.00,,---,0.00,VWS V13.01,2013-05-20 12:30:00,
2013-05-20 08:00:00,74.0,70.6,29.94,SSW,202,4.0,13.0,89,0.00,,---,0.00,VWS V13.01,2013-05-20 13:00:00,
2013-05-20 08:30:00,75.4,71.6,29.94,SW,225,5.0,14.0,88,0.00,,---,0.00,VWS V13.01,2013-05-20 13:30:00,
2013-05-20 09:00:00,77.4,71.8,29.93,WSW,248,7.0,16.0,83,0.00,,---,0.00,VWS V13.01,2013-05-20 14:00:00,
2013-05-20 09:30:00,78.8,72.5,29.95,WSW,248,7.0,15.0,81,0.00,,---,0.00,VWS V13.01,2013-05-20 14:30:00,
2013-05-20 10:30:00,80.7,72.4,29.94,West,270,6.0,16.0,76,0.00,,---,0.00,VWS V13.01,2013-05-20 15:30:00,
2013-05-20 11:00:00,81.7,71.4,29.92,West,270,8.0,16.0,71,0.00,,---,0.00,VWS V13.01,2013-05-20 16:00:00,
2013-05-20 11:17:00,81.7,71.4,29.92,West,270,8.0,16.0,71,0.00,,---,0.00,VWS V13.01,2013-05-20 16:17:00,
2013-05-20 11:18:00,83.6,72.8,29.92,West,259,5.0,8.0,70,0.00,,---,0.00,VWS V13.01,2013-05-20 16:18:00,
2013-05-20 11:19:00,83.7,72.5,29.92,WSW,249,12.0,12.0,69,0.00,,---,0.00,VWS V13.01,2013-05-20 16:19:00,
2013-05-20 11:20:00,83.6,71.5,29.92,WSW,243,6.0,12.0,67,0.00,,---,0.00,VWS V13.01,2013-05-20 16:20:00,
2013-05-20 11:21:00,83.6,71.9,29.92,WSW,241,6.0,12.0,68,0.00,,---,0.00,VWS V13.01,2013-05-20 16:21:00,
2013-05-20 11:22:00,83.5,72.3,29.92,WSW,241,7.0,12.0,69,0.00,,---,0.00,VWS V13.01,2013-05-20 16:22:00,
2013-05-20 11:23:00,83.5,72.7,29.92,WSW,253,9.0,13.0,70,0.00,,---,0.00,VWS V13.01,2013-05-20 16:23:00,
2013-05-20 11:24:00,83.5,72.7,29.92,WSW,245,11.0,13.0,70,0.00,,---,0.00,VWS V13.01,2013-05-20 16:24:00,
2013-05-20 11:25:00,83.5,72.3,29.92,SW,229,7.0,13.0,69,0.00,,---,0.00,VWS V13.01,2013-05-20 16:25:00,
2013-05-20 11:26:00,83.5,71.8,29.92,SW,219,9.0,14.0,68,0.00,,---,0.00,VWS V13.01,2013-05-20 16:26:00,
2013-05-20 11:27:00,83.5,71.8,29.92,WSW,237,11.0,14.0,68,0.00,,---,0.00,VWS V13.01,2013-05-20 16:27:00,
2013-05-20 11:28:00,83.5,71.4,29.92,SW,230,9.0,14.0,67,0.00,,---,0.00,VWS V13.01,2013-05-20 16:28:00,
2013-05-20 11:29:00,83.4,71.3,29.92,SW,232,8.0,14.0,67,0.00,,---,0.00,VWS V13.01,2013-05-20 16:29:00,
2013-05-20 11:30:00,83.5,72.3,29.92,WSW,246,9.0,14.0,69,0.00,,---,0.00,VWS V13.01,2013-05-20 16:30:00,
2013-05-20 11:31:00,83.6,73.2,29.92,WSW,246,11.0,12.0,71,0.00,,---,0.00,VWS V13.01,2013-05-20 16:31:00,
2013-05-20 11:32:00,83.6,71.9,29.92,WSW,242,12.0,13.0,68,0.00,,---,0.00,VWS V13.01,2013-05-20 16:32:00,
2013-05-20 11:33:00,83.6,71.5,29.92,WSW,241,6.0,13.0,67,0.00,,---,0.00,VWS V13.01,2013-05-20 16:33:00,
2013-05-20 11:34:00,83.5,71.4,29.92,WSW,241,10.0,13.0,67,0.00,,---,0.00,VWS V13.01,2013-05-20 16:34:00,
2013-05-20 11:35:00,83.5,71.8,29.92,WSW,242,9.0,13.0,68,0.00,,---,0.00,VWS V13.01,2013-05-20 16:35:00,
2013-05-20 11:36:00,83.5,72.7,29.92,WSW,242,8.0,13.0,70,0.00,,---,0.00,VWS V13.01,2013-05-20 16:36:00,
2013-05-20 11:37:00,83.5,72.3,29.92,WSW,245,8.0,13.0,69,0.00,,---,0.00,VWS V13.01,2013-05-20 16:37:00,
2013-05-20 11:38:00,83.4,72.2,29.92,WSW,244,5.0,13.0,69,0.00,,---,0.00,VWS V13.01,2013-05-20 16:38:00,
2013-05-20 11:39:00,83.5,72.7,29.92,WSW,244,5.0,13.0,70,0.00,,---,0.00,VWS V13.01,2013-05-20 16:39:00,
2013-05-20 11:40:00,83.5,72.7,29.92,WSW,244,4.0,13.0,70,0.00,,---,0.00,VWS V13.01,2013-05-20 16:40:00,
2013-05-20 11:41:00,83.6,73.2,29.92,WSW,243,11.0,13.0,71,0.00,,---,0.00,VWS V13.01,2013-05-20 16:41:00,
2013-05-20 11:42:00,83.6,72.4,29.92,WSW,249,16.0,16.0,69,0.00,,---,0.00,VWS V13.01,2013-05-20 16:42:00,
2013-05-20 11:43:00,83.6,72.4,29.92,WSW,249,12.0,16.0,69,0.00,,---,0.00,VWS V13.01,2013-05-20 16:43:00,
2013-05-20 11:44:00,83.6,71.9,29.92,WSW,246,4.0,16.0,68,0.00,,---,0.00,VWS V13.01,2013-05-20 16:44:00,
2013-05-20 11:45:00,83.6,72.4,29.92,WSW,246,7.0,16.0,69,0.00,,---,0.00,VWS V13.01,2013-05-20 16:45:00,
2013-05-20 11:46:00,83.6,72.4,29.92,WSW,244,10.0,16.0,69,0.00,,---,0.00,VWS V13.01,2013-05-20 16:46:00,
2013-05-20 11:47:00,83.6,72.4,29.92,WSW,243,9.0,16.0,69,0.00,,---,0.00,VWS V13.01,2013-05-20 16:47:00,
2013-05-20 11:48:00,83.7,73.3,29.92,WSW,243,10.0,16.0,71,0.00,,---,0.00,VWS V13.01,2013-05-20 16:48:00,
2013-05-20 11:49:00,83.8,72.6,29.91,WSW,241,6.0,16.0,69,0.00,,---,0.00,VWS V13.01,2013-05-20 16:49:00,
2013-05-20 11:50:00,83.8,72.1,29.91,WSW,248,8.0,16.0,68,0.00,,---,0.00,VWS V13.01,2013-05-20 16:50:00,
2013-05-20 11:51:00,83.9,73.1,29.91,WSW,240,13.0,16.0,70,0.00,,---,0.00,VWS V13.01,2013-05-20 16:51:00,
2013-05-20 11:52:00,84.0,71.9,29.91,WSW,240,5.0,16.0,67,0.00,,---,0.00,VWS V13.01,2013-05-20 16:52:00,
2013-05-20 11:53:00,84.0,72.3,29.91,WSW,240,7.0,16.0,68,0.00,,---,0.00,VWS V13.01,2013-05-20 16:53:00,
2013-05-20 11:54:00,84.1,71.5,29.91,WSW,249,11.0,16.0,66,0.00,,---,0.00,VWS V13.01,2013-05-20 16:54:00,
2013-05-20 11:55:00,84.1,72.0,29.91,WSW,250,6.0,16.0,67,0.00,,---,0.00,VWS V13.01,2013-05-20 16:55:00,
2013-05-20 11:56:00,84.1,71.5,29.91,WSW,248,5.0,16.0,66,0.00,,---,0.00,VWS V13.01,2013-05-20 16:56:00,
2013-05-20 11:57:00,84.1,71.5,29.91,SSW,209,8.0,16.0,66,0.00,,---,0.00,VWS V13.01,2013-05-20 16:57:00,
2013-05-20 11:58:00,84.0,71.4,29.91,SSW,210,6.0,16.0,66,0.00,,---,0.00,VWS V13.01,2013-05-20 16:58:00,
2013-05-20 11:59:00,84.0,72.7,29.91,SW,215,7.0,16.0,69,0.00,,---,0.00,VWS V13.01,2013-05-20 16:59:00,
2013-05-20 12:00:00,84.1,72.4,29.91,SW,223,6.0,16.0,68,0.00,,---,0.00,VWS V13.01,2013-05-20 17:00:00,
2013-05-20 12:01:00,84.2,72.5,29.91,SW,236,9.0,12.0,68,0.00,,---,0.00,VWS V13.01,2013-05-20 17:01:00,
2013-05-20 12:02:00,84.3,72.6,29.91,WSW,246,11.0,13.0,68,0.00,,---,0.00,VWS V13.01,2013-05-20 17:02:00,
2013-05-20 12:03:00,84.5,71.9,29.91,WSW,250,15.0,15.0,66,0.00,,---,0.00,VWS V13.01,2013-05-20 17:03:00,
2013-05-20 12:04:00,84.5,72.3,29.91,WSW,245,12.0,15.0,67,0.00,,---,0.00,VWS V13.01,2013-05-20 17:04:00,
2013-05-20 12:05:00,84.6,71.6,29.91,WSW,249,11.0,15.0,65,0.00,,---,0.00,VWS V13.01,2013-05-20 17:05:00,
2013-05-20 12:06:00,84.6,72.0,29.91,WSW,248,11.0,15.0,66,0.00,,---,0.00,VWS V13.01,2013-05-20 17:06:00,
2013-05-20 12:07:00,84.6,72.0,29.91,WSW,250,9.0,15.0,66,0.00,,---,0.00,VWS V13.01,2013-05-20 17:07:00,
2013-05-20 12:08:00,84.5,71.0,29.91,WSW,249,9.0,15.0,64,0.00,,---,0.00,VWS V13.01,2013-05-20 17:08:00,
2013-05-20 12:09:00,84.4,71.8,29.91,WSW,248,5.0,15.0,66,0.00,,---,0.00,VWS V13.01,2013-05-20 17:09:00,
2013-05-20 12:10:00,83.7,72.9,29.92,WSW,256,9.0,11.0,70,0.00,,---,0.00,VWS V13.01,2013-05-20 17:10:00,
2013-05-20 12:11:00,84.3,72.2,29.92,WSW,244,9.0,15.0,67,0.00,,---,0.00,VWS V13.01,2013-05-20 17:11:00,
2013-05-20 12:12:00,84.2,71.6,29.91,WSW,245,13.0,15.0,66,0.00,,---,0.00,VWS V13.01,2013-05-20 17:12:00,
2013-05-20 12:13:00,84.1,71.5,29.91,SW,236,4.0,15.0,66,0.00,,---,0.00,VWS V13.01,2013-05-20 17:13:00,
2013-05-20 12:14:00,83.9,70.9,29.91,SW,234,3.0,15.0,65,0.00,,---,0.00,VWS V13.01,2013-05-20 17:14:00,
2013-05-20 12:15:00,83.5,72.7,29.92,WSW,247,9.0,13.0,70,0.00,,---,0.00,VWS V13.01,2013-05-20 17:15:00,
2013-05-20 12:16:00,83.7,72.0,29.91,WSW,239,9.0,15.0,68,0.00,,---,0.00,VWS V13.01,2013-05-20 17:16:00,
2013-05-20 12:17:00,83.7,72.5,29.91,WSW,240,10.0,15.0,69,0.00,,---,0.00,VWS V13.01,2013-05-20 17:17:00,
2013-05-20 12:18:00,83.8,72.6,29.91,WSW,240,7.0,15.0,69,0.00,,---,0.00,VWS V13.01,2013-05-20 17:18:00,
2013-05-20 12:19:00,83.8,73.0,29.91,WSW,239,7.0,15.0,70,0.00,,---,0.00,VWS V13.01,2013-05-20 17:19:00,
2013-05-20 12:20:00,83.4,71.3,29.92,SW,232,9.0,14.0,67,0.00,,---,0.00,VWS V13.01,2013-05-20 17:20:00,
2013-05-20 12:21:00,84.1,72.8,29.92,WSW,238,4.0,15.0,69,0.00,,---,0.00,VWS V13.01,2013-05-20 17:21:00,
2013-05-20 12:22:00,84.2,73.4,29.91,SW,234,9.0,15.0,70,0.00,,---,0.00,VWS V13.01,2013-05-20 17:22:00,
2013-05-20 12:23:00,84.3,72.2,29.91,WSW,240,5.0,15.0,67,0.00,,---,0.00,VWS V13.01,2013-05-20 17:23:00,
2013-05-20 12:24:00,84.4,71.4,29.91,WSW,242,10.0,15.0,65,0.00,,---,0.00,VWS V13.01,2013-05-20 17:24:00,
2013-05-20 12:25:00,83.5,71.4,29.92,WSW,241,6.0,13.0,67,0.00,,---,0.00,VWS V13.01,2013-05-20 17:25:00,
2013-05-20 12:26:00,84.5,71.0,29.91,SW,235,5.0,15.0,64,0.00,,---,0.00,VWS V13.01,2013-05-20 17:26:00,
2013-05-20 12:27:00,84.6,71.6,29.92,WSW,238,6.0,15.0,65,0.00,,---,0.00,VWS V13.01,2013-05-20 17:27:00,
2013-05-20 12:28:00,84.7,73.0,29.91,WSW,237,5.0,15.0,68,0.00,,---,0.00,VWS V13.01,2013-05-20 17:28:00,
2013-05-20 12:29:00,84.8,72.2,29.91,WSW,238,4.0,15.0,66,0.00,,---,0.00,VWS V13.01,2013-05-20 17:29:00,
2013-05-20 12:30:00,83.5,72.7,29.92,WSW,244,1.0,13.0,70,0.00,,---,0.00,VWS V13.01,2013-05-20 17:30:00,
2013-05-20 12:31:00,84.7,71.6,29.92,WSW,238,5.0,9.0,65,0.00,,---,0.00,VWS V13.01,2013-05-20 17:31:00,
2013-05-20 12:32:00,84.6,71.6,29.92,WSW,238,3.0,9.0,65,0.00,,---,0.00,VWS V13.01,2013-05-20 17:32:00,
2013-05-20 12:33:00,84.5,71.9,29.91,WSW,238,4.0,9.0,66,0.00,,---,0.00,VWS V13.01,2013-05-20 17:33:00,
2013-05-20 12:34:00,84.4,72.2,29.92,WSW,238,2.0,9.0,67,0.00,,---,0.00,VWS V13.01,2013-05-20 17:34:00,
2013-05-20 12:35:00,83.6,71.9,29.92,WSW,246,12.0,16.0,68,0.00,,---,0.00,VWS V13.01,2013-05-20 17:35:00,
2013-05-20 12:36:00,84.4,73.1,29.92,WSW,238,4.0,9.0,69,0.00,,---,0.00,VWS V13.01,2013-05-20 17:36:00,
2013-05-20 12:37:00,84.5,73.7,29.91,WSW,238,7.0,9.0,70,0.00,,---,0.00,VWS V13.01,2013-05-20 17:37:00,
2013-05-20 12:38:00,84.5,73.2,29.92,WSW,242,11.0,11.0,69,0.00,,---,0.00,VWS V13.01,2013-05-20 17:38:00,
2013-05-20 12:39:00,84.5,72.8,29.92,WSW,243,5.0,11.0,68,0.00,,---,0.00,VWS V13.01,2013-05-20 17:39:00,
2013-05-20 12:40:00,83.8,72.6,29.91,WSW,244,6.0,16.0,69,0.00,,---,0.00,VWS V13.01,2013-05-20 17:40:00,
2013-05-20 12:41:00,84.5,72.3,29.92,WSW,248,9.0,13.0,67,0.00,,---,0.00,VWS V13.01,2013-05-20 17:41:00,
2013-05-20 12:42:00,84.5,72.3,29.92,WSW,247,5.0,13.0,67,0.00,,---,0.00,VWS V13.01,2013-05-20 17:42:00,
2013-05-20 12:43:00,84.4,71.8,29.92,WSW,247,4.0,13.0,66,0.00,,---,0.00,VWS V13.01,2013-05-20 17:43:00,
2013-05-20 12:44:00,84.2,72.1,29.92,WSW,247,6.0,13.0,67,0.00,,---,0.00,VWS V13.01,2013-05-20 17:44:00,
2013-05-20 12:45:00,84.1,72.4,29.91,WSW,245,11.0,16.0,68,0.00,,---,0.00,VWS V13.01,2013-05-20 17:45:00,
2013-05-20 12:46:00,84.1,72.4,29.92,WSW,246,4.0,13.0,68,0.00,,---,0.00,VWS V13.01,2013-05-20 17:46:00,
2013-05-20 12:47:00,84.1,72.8,29.92,WSW,246,5.0,13.0,69,0.00,,---,0.00,VWS V13.01,2013-05-20 17:47:00,
2013-05-20 12:48:00,84.1,73.3,29.92,WSW,247,5.0,13.0,70,0.00,,---,0.00,VWS V13.01,2013-05-20 17:48:00,
2013-05-20 12:49:00,84.2,72.9,29.91,WSW,250,11.0,13.0,69,0.00,,---,0.00,VWS V13.01,2013-05-20 17:49:00,
2013-05-20 12:50:00,84.0,71.0,29.91,SW,215,6.0,16.0,65,0.00,,---,0.00,VWS V13.01,2013-05-20 17:50:00,
2013-05-20 12:51:00,84.4,72.7,29.91,WSW,252,10.0,13.0,68,0.00,,---,0.00,VWS V13.01,2013-05-20 17:51:00,
2013-05-20 12:52:00,84.5,72.8,29.91,WSW,250,8.0,13.0,68,0.00,,---,0.00,VWS V13.01,2013-05-20 17:52:00,
2013-05-20 12:53:00,84.5,72.8,29.91,WSW,254,11.0,13.0,68,0.00,,---,0.00,VWS V13.01,2013-05-20 17:53:00,
2013-05-20 12:55:00,84.5,72.3,29.91,WSW,247,10.0,15.0,67,0.00,,---,0.00,VWS V13.01,2013-05-20 17:55:00,
2013-05-20 13:00:00,84.5,71.9,29.91,WSW,248,9.0,15.0,66,0.00,,---,0.00,VWS V13.01,2013-05-20 18:00:00,
2013-05-20 13:05:00,83.9,70.9,29.91,SW,234,5.0,15.0,65,0.00,,---,0.00,VWS V13.01,2013-05-20 18:05:00,
2013-05-20 13:10:00,83.8,73.0,29.91,WSW,240,4.0,15.0,70,0.00,,---,0.00,VWS V13.01,2013-05-20 18:10:00,
2013-05-20 13:15:00,84.4,72.2,29.91,WSW,242,7.0,15.0,67,0.00,,---,0.00,VWS V13.01,2013-05-20 18:15:00,
2013-05-20 13:20:00,84.8,73.1,29.91,WSW,237,9.0,15.0,68,0.00,,---,0.00,VWS V13.01,2013-05-20 18:20:00,
2013-05-20 13:25:00,84.4,72.2,29.92,WSW,238,4.0,9.0,67,0.00,,---,0.00,VWS V13.01,2013-05-20 18:25:00,
2013-05-20 13:30:00,84.5,72.8,29.92,WSW,243,8.0,11.0,68,0.00,,---,0.00,VWS V13.01,2013-05-20 18:30:00,
2013-05-20 13:35:00,84.3,72.2,29.92,WSW,247,7.0,13.0,67,0.00,,---,0.00,VWS V13.01,2013-05-20 18:35:00,
2013-05-20 13:40:00,84.2,72.9,29.91,WSW,248,7.0,13.0,69,0.00,,---,0.00,VWS V13.01,2013-05-20 18:40:00,
2013-05-20 13:45:00,84.5,72.8,29.91,WSW,252,4.0,13.0,68,0.00,,---,0.00,VWS V13.01,2013-05-20 18:45:00,
2013-05-20 14:07:00,85.3,73.6,29.90,SSW,211,8.0,13.0,68,0.00,,---,0.00,VWS V13.01,2013-05-20 19:07:00,
2013-05-20 14:08:00,85.3,72.7,29.90,SSW,210,10.0,13.0,66,0.00,,---,0.00,VWS V13.01,2013-05-20 19:08:00,
2013-05-20 14:09:00,85.2,73.0,29.90,SSW,210,10.0,13.0,67,0.00,,---,0.00,VWS V13.01,2013-05-20 19:09:00,
2013-05-20 14:10:00,85.2,73.0,29.90,SW,216,8.0,14.0,67,0.00,,---,0.00,VWS V13.01,2013-05-20 19:10:00,
2013-05-20 14:11:00,85.0,72.8,29.90,SW,215,5.0,14.0,67,0.00,,---,0.00,VWS V13.01,2013-05-20 19:11:00,
2013-05-20 14:12:00,85.0,73.3,29.90,SSW,213,7.0,14.0,68,0.00,,---,0.00,VWS V13.01,2013-05-20 19:12:00,
2013-05-20 14:13:00,85.0,73.3,29.90,SSW,203,9.0,14.0,68,0.00,,---,0.00,VWS V13.01,2013-05-20 19:13:00,
2013-05-20 14:14:00,85.0,72.8,29.90,SSW,198,2.0,14.0,67,0.00,,---,0.00,VWS V13.01,2013-05-20 19:14:00,
2013-05-20 14:15:00,85.0,73.7,29.90,SSW,198,5.0,14.0,69,0.00,,---,0.00,VWS V13.01,2013-05-20 19:15:00,
2013-05-20 14:16:00,85.0,73.3,29.90,SSW,198,5.0,14.0,68,0.00,,---,0.00,VWS V13.01,2013-05-20 19:16:00,
2013-05-20 14:17:00,85.1,74.2,29.90,SSW,198,5.0,14.0,70,0.00,,---,0.00,VWS V13.01,2013-05-20 19:17:00,
2013-05-20 14:18:00,85.1,73.4,29.90,SSW,198,7.0,14.0,68,0.00,,---,0.00,VWS V13.01,2013-05-20 19:18:00,
2013-05-20 14:19:00,85.2,73.4,29.90,SSW,198,10.0,14.0,68,0.00,,---,0.00,VWS V13.01,2013-05-20 19:19:00,
2013-05-20 14:20:00,85.2,73.4,29.90,SSW,199,5.0,14.0,68,0.00,,---,0.00,VWS V13.01,2013-05-20 19:20:00,
2013-05-20 14:21:00,85.2,73.4,29.90,SSW,200,6.0,14.0,68,0.00,,---,0.00,VWS V13.01,2013-05-20 19:21:00,
2013-05-20 14:22:00,85.2,72.6,29.89,SSW,204,6.0,14.0,66,0.00,,---,0.00,VWS V13.01,2013-05-20 19:22:00,
2013-05-20 14:23:00,85.1,72.9,29.89,SSW,201,5.0,14.0,67,0.00,,---,0.00,VWS V13.01,2013-05-20 19:23:00,
2013-05-20 14:24:00,85.1,73.4,29.89,SSW,204,9.0,14.0,68,0.00,,---,0.00,VWS V13.01,2013-05-20 19:24:00,
2013-05-20 14:25:00,85.1,72.9,29.89,SW,229,10.0,14.0,67,0.00,,---,0.00,VWS V13.01,2013-05-20 19:25:00,
2013-05-20 14:26:00,85.2,73.4,29.89,SW,234,4.0,14.0,68,0.00,,---,0.00,VWS V13.01,2013-05-20 19:26:00,
2013-05-20 14:27:00,85.3,73.1,29.89,WSW,238,12.0,14.0,67,0.00,,---,0.00,VWS V13.01,2013-05-20 19:27:00,
2013-05-20 14:28:00,85.3,72.7,29.89,WSW,238,10.0,14.0,66,0.00,,---,0.00,VWS V13.01,2013-05-20 19:28:00,
2013-05-20 14:29:00,85.4,72.3,29.89,WSW,238,6.0,14.0,65,0.00,,---,0.00,VWS V13.01,2013-05-20 19:29:00,
2013-05-20 14:30:00,85.4,73.2,29.89,WSW,244,7.0,14.0,67,0.00,,---,0.00,VWS V13.01,2013-05-20 19:30:00,
2013-05-20 14:31:00,85.5,73.7,29.89,WSW,244,3.0,7.0,68,0.00,,---,0.00,VWS V13.01,2013-05-20 19:31:00,
2013-05-20 14:32:00,85.6,72.9,29.89,WSW,244,10.0,12.0,66,0.00,,---,0.00,VWS V13.01,2013-05-20 19:32:00,
2013-05-20 14:33:00,85.7,72.1,29.89,WSW,245,6.0,12.0,64,0.00,,---,0.00,VWS V13.01,2013-05-20 19:33:00,
2013-05-20 14:34:00,85.7,72.6,29.89,WSW,240,5.0,12.0,65,0.00,,---,0.00,VWS V13.01,2013-05-20 19:34:00,
2013-05-20 14:35:00,85.7,73.5,29.89,WSW,240,9.0,12.0,67,0.00,,---,0.00,VWS V13.01,2013-05-20 19:35:00,
2013-05-20 14:36:00,85.8,73.1,29.89,WSW,237,7.0,12.0,66,0.00,,---,0.00,VWS V13.01,2013-05-20 19:36:00,
2013-05-20 14:37:00,85.8,71.8,29.89,WSW,240,6.0,13.0,63,0.00,,---,0.00,VWS V13.01,2013-05-20 19:37:00,
2013-05-20 14:38:00,85.8,71.8,29.89,SW,217,9.0,13.0,63,0.00,,---,0.00,VWS V13.01,2013-05-20 19:38:00,
2013-05-20 14:39:00,85.8,72.2,29.89,SW,217,5.0,13.0,64,0.00,,---,0.00,VWS V13.01,2013-05-20 19:39:00,
2013-05-20 14:40:00,85.7,72.1,29.89,SW,218,5.0,13.0,64,0.00,,---,0.00,VWS V13.01,2013-05-20 19:40:00,
2013-05-20 14:41:00,85.7,73.5,29.89,SW,219,9.0,13.0,67,0.00,,---,0.00,VWS V13.01,2013-05-20 19:41:00,
2013-05-20 14:42:00,85.7,72.6,29.89,SW,219,9.0,13.0,65,0.00,,---,0.00,VWS V13.01,2013-05-20 19:42:00,
2013-05-20 14:43:00,85.7,73.0,29.89,SW,219,5.0,13.0,66,0.00,,---,0.00,VWS V13.01,2013-05-20 19:43:00,
2013-05-20 14:44:00,85.7,73.5,29.89,SW,232,11.0,13.0,67,0.00,,---,0.00,VWS V13.01,2013-05-20 19:44:00,
2013-05-20 14:45:00,85.7,73.5,29.89,SW,232,3.0,13.0,67,0.00,,---,0.00,VWS V13.01,2013-05-20 19:45:00,
2013-05-20 14:46:00,85.7,73.9,29.88,SW,229,9.0,13.0,68,0.00,,---,0.00,VWS V13.01,2013-05-20 19:46:00,
2013-05-20 14:47:00,85.7,73.5,29.88,SW,219,9.0,13.0,67,0.00,,---,0.00,VWS V13.01,2013-05-20 19:47:00,
2013-05-20 14:48:00,85.7,72.6,29.88,SW,223,9.0,16.0,65,0.00,,---,0.00,VWS V13.01,2013-05-20 19:48:00,
2013-05-20 14:49:00,85.6,72.5,29.88,SW,221,7.0,16.0,65,0.00,,---,0.00,VWS V13.01,2013-05-20 19:49:00,
2013-05-20 14:50:00,85.5,73.3,29.88,SW,221,6.0,16.0,67,0.00,,---,0.00,VWS V13.01,2013-05-20 19:50:00,
2013-05-20 14:51:00,85.5,73.7,29.89,SW,221,9.0,16.0,68,0.00,,---,0.00,VWS V13.01,2013-05-20 19:51:00,
2013-05-20 14:52:00,85.5,72.8,29.88,SSW,196,10.0,16.0,66,0.00,,---,0.00,VWS V13.01,2013-05-20 19:52:00,
2013-05-20 14:53:00,85.5,72.4,29.88,SSW,198,12.0,16.0,65,0.00,,---,0.00,VWS V13.01,2013-05-20 19:53:00,
2013-05-20 14:54:00,85.4,73.2,29.88,SW,227,6.0,16.0,67,0.00,,---,0.00,VWS V13.01,2013-05-20 19:54:00,
2013-05-20 14:55:00,85.5,72.8,29.88,SW,230,8.0,16.0,66,0.00,,---,0.00,VWS V13.01,2013-05-20 19:55:00,
2013-05-20 14:56:00,85.5,72.4,29.88,WSW,245,6.0,16.0,65,0.00,,---,0.00,VWS V13.01,2013-05-20 19:56:00,
2013-05-20 14:57:00,85.5,72.4,29.88,SW,228,5.0,16.0,65,0.00,,---,0.00,VWS V13.01,2013-05-20 19:57:00,
2013-05-20 14:58:00,85.6,72.9,29.88,SW,228,6.0,16.0,66,0.00,,---,0.00,VWS V13.01,2013-05-20 19:58:00,
2013-05-20 14:59:00,85.5,72.8,29.88,SW,233,7.0,16.0,66,0.00,,---,0.00,VWS V13.01,2013-05-20 19:59:00,
2013-05-20 15:00:00,85.2,72.6,29.90,SSW,211,8.0,13.0,66,0.00,,---,0.00,VWS V13.01,2013-05-20 20:00:00,
2013-05-20 15:01:00,85.4,72.8,29.88,SW,232,10.0,10.0,66,0.00,,---,0.00,VWS V13.01,2013-05-20 20:01:00,
2013-05-20 15:02:00,85.4,72.8,29.88,SW,227,7.0,10.0,66,0.00,,---,0.00,VWS V13.01,2013-05-20 20:02:00,
2013-05-20 15:03:00,85.3,73.1,29.88,SSW,209,10.0,16.0,67,0.00,,---,0.00,VWS V13.01,2013-05-20 20:03:00,
2013-05-20 15:04:00,85.2,72.6,29.88,SSW,207,11.0,16.0,66,0.00,,---,0.00,VWS V13.01,2013-05-20 20:04:00,
2013-05-20 15:05:00,85.0,73.3,29.90,SSW,198,4.0,14.0,68,0.00,,---,0.00,VWS V13.01,2013-05-20 20:05:00,
2013-05-20 15:06:00,84.9,72.3,29.88,SSW,209,6.0,16.0,66,0.00,,---,0.00,VWS V13.01,2013-05-20 20:06:00,
2013-05-20 15:07:00,84.8,73.1,29.88,SSW,209,4.0,16.0,68,0.00,,---,0.00,VWS V13.01,2013-05-20 20:07:00,
2013-05-20 15:08:00,84.8,72.6,29.88,SSW,208,5.0,16.0,67,0.00,,---,0.00,VWS V13.01,2013-05-20 20:08:00,
2013-05-20 15:09:00,84.8,73.1,29.88,SSW,203,10.0,16.0,68,0.00,,---,0.00,VWS V13.01,2013-05-20 20:09:00,
2013-05-20 15:10:00,85.2,73.4,29.90,SSW,198,4.0,14.0,68,0.00,,---,0.00,VWS V13.01,2013-05-20 20:10:00,
2013-05-20 15:11:00,84.9,72.7,29.88,SSW,198,10.0,16.0,67,0.00,,---,0.00,VWS V13.01,2013-05-20 20:11:00,
2013-05-20 15:12:00,84.9,72.7,29.87,SSW,204,10.0,16.0,67,0.00,,---,0.00,VWS V13.01,2013-05-20 20:12:00,
2013-05-20 15:13:00,85.0,72.4,29.88,SSW,205,7.0,16.0,66,0.00,,---,0.00,VWS V13.01,2013-05-20 20:13:00,
2013-05-20 15:14:00,85.0,72.8,29.88,SSW,205,4.0,16.0,67,0.00,,---,0.00,VWS V13.01,2013-05-20 20:14:00,
2013-05-20 15:15:00,85.1,73.4,29.89,SSW,204,10.0,14.0,68,0.00,,---,0.00,VWS V13.01,2013-05-20 20:15:00,
2013-05-20 15:16:00,85.1,72.9,29.87,SSW,209,4.0,16.0,67,0.00,,---,0.00,VWS V13.01,2013-05-20 20:16:00,
2013-05-20 15:17:00,85.1,72.9,29.87,SSW,209,4.0,16.0,67,0.00,,---,0.00,VWS V13.01,2013-05-20 20:17:00,
2013-05-20 15:18:00,85.2,73.9,29.87,SSW,211,7.0,16.0,69,0.00,,---,0.00,VWS V13.01,2013-05-20 20:18:00,
2013-05-20 15:19:00,85.3,72.2,29.87,SW,225,10.0,16.0,65,0.00,,---,0.00,VWS V13.01,2013-05-20 20:19:00,
2013-05-20 15:20:00,85.4,72.3,29.89,WSW,239,6.0,14.0,65,0.00,,---,0.00,VWS V13.01,2013-05-20 20:20:00,
2013-05-20 15:21:00,85.3,72.7,29.87,SW,223,10.0,16.0,66,0.00,,---,0.00,VWS V13.01,2013-05-20 20:21:00,
2013-05-20 15:22:00,85.3,72.7,29.87,SW,224,9.0,16.0,66,0.00,,---,0.00,VWS V13.01,2013-05-20 20:22:00,
2013-05-20 15:23:00,85.4,72.3,29.87,SW,225,4.0,16.0,65,0.00,,---,0.00,VWS V13.01,2013-05-20 20:23:00,
2013-05-20 15:24:00,85.4,72.3,29.87,SW,223,11.0,16.0,65,0.00,,---,0.00,VWS V13.01,2013-05-20 20:24:00,
2013-05-20 15:25:00,85.7,72.6,29.89,WSW,240,5.0,12.0,65,0.00,,---,0.00,VWS V13.01,2013-05-20 20:25:00,
2013-05-20 15:26:00,85.4,72.3,29.87,SW,227,7.0,16.0,65,0.00,,---,0.00,VWS V13.01,2013-05-20 20:26:00,
2013-05-20 15:27:00,85.4,72.8,29.87,WSW,239,11.0,16.0,66,0.00,,---,0.00,VWS V13.01,2013-05-20 20:27:00,
2013-05-20 15:28:00,85.4,72.8,29.87,WSW,243,10.0,16.0,66,0.00,,---,0.00,VWS V13.01,2013-05-20 20:28:00,
2013-05-20 15:29:00,85.4,71.4,29.87,WSW,243,3.0,16.0,63,0.00,,---,0.00,VWS V13.01,2013-05-20 20:29:00,
2013-05-20 15:30:00,85.8,72.2,29.89,SW,217,3.0,13.0,64,0.00,,---,0.00,VWS V13.01,2013-05-20 20:30:00,
2013-05-20 15:31:00,85.4,72.8,29.87,WSW,241,8.0,9.0,66,0.00,,---,0.00,VWS V13.01,2013-05-20 20:31:00,
2013-05-20 15:32:00,85.4,72.3,29.87,WSW,240,9.0,9.0,65,0.00,,---,0.00,VWS V13.01,2013-05-20 20:32:00,
2013-05-20 15:33:00,85.4,72.8,29.87,SW,234,3.0,10.0,66,0.00,,---,0.00,VWS V13.01,2013-05-20 20:33:00,
2013-05-20 15:34:00,85.4,72.8,29.87,SW,225,6.0,12.0,66,0.00,,---,0.00,VWS V13.01,2013-05-20 20:34:00,
2013-05-20 15:35:00,85.7,73.0,29.88,SW,231,10.0,13.0,66,0.00,,---,0.00,VWS V13.01,2013-05-20 20:35:00,
2013-05-20 15:36:00,85.2,72.1,29.87,South,182,11.0,14.0,65,0.00,,---,0.00,VWS V13.01,2013-05-20 20:36:00,
2013-05-20 15:37:00,85.1,72.0,29.87,South,182,7.0,14.0,65,0.00,,---,0.00,VWS V13.01,2013-05-20 20:37:00,
2013-05-20 15:38:00,85.0,72.4,29.87,South,183,4.0,14.0,66,0.00,,---,0.00,VWS V13.01,2013-05-20 20:38:00,
2013-05-20 15:39:00,84.9,72.3,29.87,SSW,208,11.0,14.0,66,0.00,,---,0.00,VWS V13.01,2013-05-20 20:39:00,
2013-05-20 15:40:00,85.6,72.9,29.88,SW,221,9.0,16.0,66,0.00,,---,0.00,VWS V13.01,2013-05-20 20:40:00,
2013-05-20 15:41:00,84.7,72.1,29.87,SSW,207,6.0,14.0,66,0.00,,---,0.00,VWS V13.01,2013-05-20 20:41:00,
2013-05-20 15:42:00,84.7,72.5,29.87,SSW,211,4.0,14.0,67,0.00,,---,0.00,VWS V13.01,2013-05-20 20:42:00,
2013-05-20 15:43:00,84.6,72.0,29.87,SSW,210,6.0,14.0,66,0.00,,---,0.00,VWS V13.01,2013-05-20 20:43:00,
2013-05-20 15:44:00,84.6,72.0,29.87,SSW,210,6.0,14.0,66,0.00,,---,0.00,VWS V13.01,2013-05-20 20:44:00,
2013-05-20 15:45:00,85.5,73.3,29.88,SW,227,9.0,16.0,67,0.00,,---,0.00,VWS V13.01,2013-05-20 20:45:00,
2013-05-20 15:46:00,84.5,71.9,29.87,SSW,211,8.0,14.0,66,0.00,,---,0.00,VWS V13.01,2013-05-20 20:46:00,
2013-05-20 15:47:00,84.5,72.3,29.87,SSW,211,5.0,14.0,67,0.00,,---,0.00,VWS V13.01,2013-05-20 20:47:00,
2013-05-20 15:48:00,84.5,72.3,29.87,SSW,211,9.0,14.0,67,0.00,,---,0.00,VWS V13.01,2013-05-20 20:48:00,
2013-05-20 15:49:00,84.5,72.3,29.87,SSW,211,6.0,14.0,67,0.00,,---,0.00,VWS V13.01,2013-05-20 20:49:00,
2013-05-20 15:50:00,85.5,72.8,29.88,SW,233,5.0,16.0,66,0.00,,---,0.00,VWS V13.01,2013-05-20 20:50:00,
2013-05-20 15:51:00,84.7,73.0,29.86,SW,214,3.0,14.0,68,0.00,,---,0.00,VWS V13.01,2013-05-20 20:51:00,
2013-05-20 15:52:00,84.8,73.5,29.86,SW,215,7.0,14.0,69,0.00,,---,0.00,VWS V13.01,2013-05-20 20:52:00,
2013-05-20 15:53:00,84.9,73.2,29.86,SSW,213,8.0,14.0,68,0.00,,---,0.00,VWS V13.01,2013-05-20 20:53:00,
2013-05-20 15:54:00,85.0,73.3,29.86,SW,214,4.0,14.0,68,0.00,,---,0.00,VWS V13.01,2013-05-20 20:54:00,
2013-05-20 15:55:00,85.2,72.6,29.88,SSW,207,10.0,16.0,66,0.00,,---,0.00,VWS V13.01,2013-05-20 20:55:00,
2013-05-20 15:56:00,85.2,73.4,29.86,WSW,240,11.0,14.0,68,0.00,,---,0.00,VWS V13.01,2013-05-20 20:56:00,
2013-05-20 15:57:00,85.4,72.8,29.86,WSW,246,7.0,14.0,66,0.00,,---,0.00,VWS V13.01,2013-05-20 20:57:00,
2013-05-20 15:58:00,85.4,72.8,29.86,SW,227,5.0,15.0,66,0.00,,---,0.00,VWS V13.01,2013-05-20 20:58:00,
2013-05-20 15:59:00,85.5,72.4,29.86,SW,229,5.0,15.0,65,0.00,,---,0.00,VWS V13.01,2013-05-20 20:59:00,
2013-05-20 16:00:00,84.8,73.1,29.88,SSW,208,5.0,16.0,68,0.00,,---,0.00,VWS V13.01,2013-05-20 21:00:00,
2013-05-20 16:01:00,85.6,72.0,29.86,WSW,238,12.0,12.0,64,0.00,,---,0.00,VWS V13.01,2013-05-20 21:01:00,
2013-05-20 16:02:00,85.7,72.1,29.86,SW,236,10.0,13.0,64,0.00,,---,0.00,VWS V13.01,2013-05-20 21:02:00,
2013-05-20 16:03:00,85.7,72.6,29.86,SW,233,5.0,13.0,65,0.00,,---,0.00,VWS V13.01,2013-05-20 21:03:00,
2013-05-20 16:04:00,85.7,72.1,29.86,SW,230,7.0,13.0,64,0.00,,---,0.00,VWS V13.01,2013-05-20 21:04:00,
2013-05-20 16:05:00,85.0,72.4,29.88,SSW,205,8.0,16.0,66,0.00,,---,0.00,VWS V13.01,2013-05-20 21:05:00,
2013-05-20 16:06:00,85.6,72.0,29.86,SW,227,6.0,13.0,64,0.00,,---,0.00,VWS V13.01,2013-05-20 21:06:00,
2013-05-20 16:07:00,85.5,71.9,29.86,SW,226,4.0,13.0,64,0.00,,---,0.00,VWS V13.01,2013-05-20 21:07:00,
2013-05-20 16:08:00,85.5,72.8,29.86,SW,227,5.0,13.0,66,0.00,,---,0.00,VWS V13.01,2013-05-20 21:08:00,
2013-05-20 16:09:00,85.5,71.9,29.86,SW,227,5.0,13.0,64,0.00,,---,0.00,VWS V13.01,2013-05-20 21:09:00,
2013-05-20 16:10:00,85.3,73.6,29.87,SW,224,12.0,16.0,68,0.00,,---,0.00,VWS V13.01,2013-05-20 21:10:00,
2013-05-20 16:11:00,85.5,72.8,29.86,SW,226,5.0,13.0,66,0.00,,---,0.00,VWS V13.01,2013-05-20 21:11:00,
2013-05-20 16:12:00,85.5,72.8,29.86,SW,226,7.0,13.0,66,0.00,,---,0.00,VWS V13.01,2013-05-20 21:12:00,
2013-05-20 16:13:00,85.6,73.4,29.86,SW,225,6.0,13.0,67,0.00,,---,0.00,VWS V13.01,2013-05-20 21:13:00,
2013-05-20 16:14:00,85.6,72.5,29.86,SSW,209,4.0,13.0,65,0.00,,---,0.00,VWS V13.01,2013-05-20 21:14:00,
2013-05-20 16:15:00,85.4,72.3,29.87,SW,224,9.0,16.0,65,0.00,,---,0.00,VWS V13.01,2013-05-20 21:15:00,
2013-05-20 16:16:00,85.5,72.8,29.85,South,176,10.0,13.0,66,0.00,,---,0.00,VWS V13.01,2013-05-20 21:16:00,
2013-05-20 16:17:00,85.5,73.3,29.85,South,178,7.0,13.0,67,0.00,,---,0.00,VWS V13.01,2013-05-20 21:17:00,
2013-05-20 16:18:00,85.5,72.8,29.85,South,189,6.0,13.0,66,0.00,,---,0.00,VWS V13.01,2013-05-20 21:18:00,
2013-05-20 16:19:00,85.4,73.2,29.85,South,189,6.0,13.0,67,0.00,,---,0.00,VWS V13.01,2013-05-20 21:19:00,
2013-05-20 16:20:00,85.4,71.4,29.87,WSW,242,4.0,16.0,63,0.00,,---,0.00,VWS V13.01,2013-05-20 21:20:00,
2013-05-20 16:21:00,85.2,72.6,29.85,SSW,204,6.0,13.0,66,0.00,,---,0.00,VWS V13.01,2013-05-20 21:21:00,
2013-05-20 16:22:00,85.1,72.5,29.85,SSW,204,7.0,13.0,66,0.00,,---,0.00,VWS V13.01,2013-05-20 21:22:00,
2013-05-20 16:23:00,85.0,72.8,29.85,SSW,205,1.0,13.0,67,0.00,,---,0.00,VWS V13.01,2013-05-20 21:23:00,
2013-05-20 16:24:00,84.8,72.6,29.85,SSW,204,5.0,13.0,67,0.00,,---,0.00,VWS V13.01,2013-05-20 21:24:00,
2013-05-20 16:25:00,85.4,72.8,29.87,SW,226,9.0,12.0,66,0.00,,---,0.00,VWS V13.01,2013-05-20 21:25:00,
2013-05-20 16:26:00,84.7,73.0,29.85,SSW,204,9.0,13.0,68,0.00,,---,0.00,VWS V13.01,2013-05-20 21:26:00,
2013-05-20 16:27:00,84.6,72.4,29.85,SSW,204,4.0,13.0,67,0.00,,---,0.00,VWS V13.01,2013-05-20 21:27:00,
2013-05-20 16:28:00,84.6,73.3,29.85,SSW,205,5.0,13.0,69,0.00,,---,0.00,VWS V13.01,2013-05-20 21:28:00,
2013-05-20 16:29:00,84.6,72.9,29.85,SSW,205,5.0,13.0,68,0.00,,---,0.00,VWS V13.01,2013-05-20 21:29:00,
2013-05-20 16:30:00,84.9,72.3,29.87,South,186,5.0,14.0,66,0.00,,---,0.00,VWS V13.01,2013-05-20 21:30:00,
2013-05-20 16:31:00,84.7,73.0,29.85,SSW,205,5.0,5.0,68,0.00,,---,0.00,VWS V13.01,2013-05-20 21:31:00,
2013-05-20 16:32:00,84.7,73.0,29.85,SSW,203,10.0,12.0,68,0.00,,---,0.00,VWS V13.01,2013-05-20 21:32:00,
2013-05-20 16:33:00,84.8,72.6,29.85,SSW,205,9.0,12.0,67,0.00,,---,0.00,VWS V13.01,2013-05-20 21:33:00,
2013-05-20 16:34:00,84.8,72.6,29.85,SSW,206,9.0,12.0,67,0.00,,---,0.00,VWS V13.01,2013-05-20 21:34:00,
2013-05-20 16:35:00,84.6,72.0,29.87,SSW,210,5.0,14.0,66,0.00,,---,0.00,VWS V13.01,2013-05-20 21:35:00,
2013-05-20 16:36:00,84.9,72.7,29.85,SW,214,4.0,12.0,67,0.00,,---,0.00,VWS V13.01,2013-05-20 21:36:00,
2013-05-20 16:37:00,85.0,72.4,29.85,SSW,213,7.0,12.0,66,0.00,,---,0.00,VWS V13.01,2013-05-20 21:37:00,
2013-05-20 16:38:00,85.0,72.8,29.85,SW,214,5.0,12.0,67,0.00,,---,0.00,VWS V13.01,2013-05-20 21:38:00,
2013-05-20 16:39:00,85.1,72.9,29.85,SW,214,6.0,12.0,67,0.00,,---,0.00,VWS V13.01,2013-05-20 21:39:00,
2013-05-20 16:40:00,84.5,72.3,29.87,SSW,210,5.0,14.0,67,0.00,,---,0.00,VWS V13.01,2013-05-20 21:40:00,
2013-05-20 16:41:00,85.1,73.4,29.85,SSW,198,5.0,13.0,68,0.00,,---,0.00,VWS V13.01,2013-05-20 21:41:00,
2013-05-20 16:42:00,85.0,72.8,29.85,South,188,9.0,13.0,67,0.00,,---,0.00,VWS V13.01,2013-05-20 21:42:00,
2013-05-20 16:43:00,85.0,72.8,29.85,South,190,9.0,13.0,67,0.00,,---,0.00,VWS V13.01,2013-05-20 21:43:00,
2013-05-20 16:44:00,84.9,72.7,29.85,SSW,194,6.0,13.0,67,0.00,,---,0.00,VWS V13.01,2013-05-20 21:44:00,
2013-05-20 16:45:00,85.0,73.3,29.86,SW,214,6.0,14.0,68,0.00,,---,0.00,VWS V13.01,2013-05-20 21:45:00,
2013-05-20 16:46:00,84.8,73.1,29.85,SSW,202,8.0,13.0,68,0.00,,---,0.00,VWS V13.01,2013-05-20 21:46:00,
2013-05-20 16:47:00,84.7,73.0,29.85,SSW,202,6.0,13.0,68,0.00,,---,0.00,VWS V13.01,2013-05-20 21:47:00,
2013-05-20 16:48:00,84.7,73.4,29.85,SSW,202,10.0,13.0,69,0.00,,---,0.00,VWS V13.01,2013-05-20 21:48:00,
2013-05-20 16:49:00,84.6,73.3,29.85,SSW,205,7.0,13.0,69,0.00,,---,0.00,VWS V13.01,2013-05-20 21:49:00,
2013-05-20 16:50:00,85.5,72.4,29.86,SW,229,8.0,15.0,65,0.00,,---,0.00,VWS V13.01,2013-05-20 21:50:00,
2013-05-20 16:51:00,84.4,73.1,29.85,SSW,204,4.0,13.0,69,0.00,,---,0.00,VWS V13.01,2013-05-20 21:51:00,
2013-05-20 16:52:00,84.3,73.0,29.85,SSW,205,3.0,13.0,69,0.00,,---,0.00,VWS V13.01,2013-05-20 21:52:00,
2013-05-20 16:53:00,84.2,72.9,29.85,SSW,205,9.0,13.0,69,0.00,,---,0.00,VWS V13.01,2013-05-20 21:53:00,
2013-05-20 16:54:00,84.1,72.8,29.85,SSW,205,9.0,13.0,69,0.00,,---,0.00,VWS V13.01,2013-05-20 21:54:00,
2013-05-20 16:55:00,85.7,72.1,29.86,SW,230,8.0,13.0,64,0.00,,---,0.00,VWS V13.01,2013-05-20 21:55:00,
2013-05-20 16:56:00,84.0,72.7,29.85,SSW,205,5.0,13.0,69,0.00,,---,0.00,VWS V13.01,2013-05-20 21:56:00,
2013-05-20 16:57:00,83.9,72.7,29.85,SSW,205,3.0,13.0,69,0.00,,---,0.00,VWS V13.01,2013-05-20 21:57:00,
2013-05-20 16:58:00,83.9,73.1,29.84,SSW,205,6.0,13.0,70,0.00,,---,0.00,VWS V13.01,2013-05-20 21:58:00,
2013-05-20 16:59:00,83.9,73.1,29.84,SSW,205,5.0,13.0,70,0.00,,---,0.00,VWS V13.01,2013-05-20 21:59:00,
2013-05-20 17:00:00,85.5,71.9,29.86,SW,227,5.0,13.0,64,0.00,,---,0.00,VWS V13.01,2013-05-20 22:00:00,
2013-05-20 17:01:00,83.8,73.0,29.84,SSW,205,6.0,10.0,70,0.00,,---,0.00,VWS V13.01,2013-05-20 22:01:00,
2013-05-20 17:02:00,83.8,73.0,29.84,SSW,205,7.0,10.0,70,0.00,,---,0.00,VWS V13.01,2013-05-20 22:02:00,
2013-05-20 17:03:00,83.8,73.0,29.84,SSW,205,4.0,10.0,70,0.00,,---,0.00,VWS V13.01,2013-05-20 22:03:00,
2013-05-20 17:04:00,83.8,73.4,29.84,SSW,205,11.0,11.0,71,0.00,,---,0.00,VWS V13.01,2013-05-20 22:04:00,
2013-05-20 17:05:00,85.6,72.5,29.86,SSW,209,6.0,13.0,65,0.00,,---,0.00,VWS V13.01,2013-05-20 22:05:00,
2013-05-20 17:06:00,83.8,73.0,29.84,SSW,203,5.0,11.0,70,0.00,,---,0.00,VWS V13.01,2013-05-20 22:06:00,
2013-05-20 17:07:00,83.8,73.0,29.84,SSW,204,6.0,11.0,70,0.00,,---,0.00,VWS V13.01,2013-05-20 22:07:00,
2013-05-20 17:08:00,83.8,73.0,29.84,SSW,204,4.0,12.0,70,0.00,,---,0.00,VWS V13.01,2013-05-20 22:08:00,
2013-05-20 17:09:00,83.8,73.0,29.84,SSW,204,4.0,12.0,70,0.00,,---,0.00,VWS V13.01,2013-05-20 22:09:00,
2013-05-20 17:10:00,85.5,73.3,29.85,South,188,3.0,13.0,67,0.00,,---,0.00,VWS V13.01,2013-05-20 22:10:00,
2013-05-20 17:11:00,83.9,73.5,29.84,South,187,5.0,12.0,71,0.00,,---,0.00,VWS V13.01,2013-05-20 22:11:00,
2013-05-20 17:12:00,83.9,73.1,29.84,South,178,10.0,14.0,70,0.00,,---,0.00,VWS V13.01,2013-05-20 22:12:00,
2013-05-20 17:13:00,83.9,72.7,29.84,SSW,202,14.0,14.0,69,0.00,,---,0.00,VWS V13.01,2013-05-20 22:13:00,
2013-05-20 17:14:00,83.9,72.7,29.84,SW,219,6.0,14.0,69,0.00,,---,0.00,VWS V13.01,2013-05-20 22:14:00,
2013-05-20 17:15:00,84.9,72.7,29.85,SSW,203,7.0,13.0,67,0.00,,---,0.00,VWS V13.01,2013-05-20 22:15:00,
2013-05-20 17:16:00,83.8,72.6,29.83,SW,214,12.0,14.0,69,0.00,,---,0.00,VWS V13.01,2013-05-20 22:16:00,
2013-05-20 17:17:00,83.8,72.1,29.83,SSW,213,10.0,14.0,68,0.00,,---,0.00,VWS V13.01,2013-05-20 22:17:00,
2013-05-20 17:18:00,83.7,72.5,29.83,SSW,211,11.0,14.0,69,0.00,,---,0.00,VWS V13.01,2013-05-20 22:18:00,
2013-05-20 17:19:00,83.7,72.5,29.84,SW,214,6.0,14.0,69,0.00,,---,0.00,VWS V13.01,2013-05-20 22:19:00,
2013-05-20 17:20:00,84.6,72.9,29.85,SSW,205,9.0,13.0,68,0.00,,---,0.00,VWS V13.01,2013-05-20 22:20:00,
2013-05-20 17:21:00,83.6,72.4,29.84,SSW,203,4.0,14.0,69,0.00,,---,0.00,VWS V13.01,2013-05-20 22:21:00,
2013-05-20 17:22:00,83.6,72.8,29.84,SSW,203,2.0,14.0,70,0.00,,---,0.00,VWS V13.01,2013-05-20 22:22:00,
2013-05-20 17:23:00,83.6,72.8,29.83,SSW,203,2.0,14.0,70,0.00,,---,0.00,VWS V13.01,2013-05-20 22:23:00,
2013-05-20 17:24:00,83.6,72.8,29.84,SSW,203,6.0,14.0,70,0.00,,---,0.00,VWS V13.01,2013-05-20 22:24:00,
2013-05-20 17:25:00,84.8,72.6,29.85,SSW,207,4.0,12.0,67,0.00,,---,0.00,VWS V13.01,2013-05-20 22:25:00,
2013-05-20 17:26:00,83.5,72.7,29.83,SSW,203,6.0,14.0,70,0.00,,---,0.00,VWS V13.01,2013-05-20 22:26:00,
2013-05-20 17:27:00,83.5,72.7,29.84,SSW,203,6.0,14.0,70,0.00,,---,0.00,VWS V13.01,2013-05-20 22:27:00,
2013-05-20 17:28:00,83.5,73.1,29.83,SSW,203,4.0,14.0,71,0.00,,---,0.00,VWS V13.01,2013-05-20 22:28:00,
2013-05-20 17:29:00,83.5,73.1,29.83,SSW,203,7.0,14.0,71,0.00,,---,0.00,VWS V13.01,2013-05-20 22:29:00,
2013-05-20 17:30:00,85.0,72.8,29.85,SW,214,5.0,12.0,67,0.00,,---,0.00,VWS V13.01,2013-05-20 22:30:00,
2013-05-20 17:31:00,83.5,72.7,29.83,SSW,203,4.0,11.0,70,0.00,,---,0.00,VWS V13.01,2013-05-20 22:31:00,
2013-05-20 17:32:00,83.5,72.7,29.83,SSW,203,3.0,11.0,70,0.00,,---,0.00,VWS V13.01,2013-05-20 22:32:00,
2013-05-20 17:33:00,83.5,73.1,29.83,SSW,203,5.0,11.0,71,0.00,,---,0.00,VWS V13.01,2013-05-20 22:33:00,
2013-05-20 17:34:00,83.5,72.7,29.83,SSW,203,4.0,11.0,70,0.00,,---,0.00,VWS V13.01,2013-05-20 22:34:00,
2013-05-20 17:35:00,84.9,72.7,29.85,SSW,194,7.0,13.0,67,0.00,,---,0.00,VWS V13.01,2013-05-20 22:35:00,
2013-05-20 17:36:00,83.4,72.6,29.83,SSW,203,4.0,11.0,70,0.00,,---,0.00,VWS V13.01,2013-05-20 22:36:00,
2013-05-20 17:37:00,83.4,72.6,29.83,SSW,203,3.0,11.0,70,0.00,,---,0.00,VWS V13.01,2013-05-20 22:37:00,
2013-05-20 17:40:00,84.6,73.3,29.85,SSW,205,10.0,13.0,69,0.00,,---,0.00,VWS V13.01,2013-05-20 22:40:00,
2013-05-20 17:45:00,84.2,72.9,29.85,SSW,205,5.0,13.0,69,0.00,,---,0.00,VWS V13.01,2013-05-20 22:45:00,
2013-05-20 17:50:00,83.9,73.1,29.84,SSW,205,5.0,13.0,70,0.00,,---,0.00,VWS V13.01,2013-05-20 22:50:00,
2013-05-20 17:55:00,83.8,73.0,29.84,SSW,205,1.0,10.0,70,0.00,,---,0.00,VWS V13.01,2013-05-20 22:55:00,
2013-05-20 18:00:00,83.8,73.0,29.84,SSW,203,6.0,12.0,70,0.00,,---,0.00,VWS V13.01,2013-05-20 23:00:00,
2013-05-20 18:05:00,83.9,72.7,29.84,SW,219,9.0,14.0,69,0.00,,---,0.00,VWS V13.01,2013-05-20 23:05:00,
2013-05-20 18:10:00,83.7,72.5,29.84,SW,214,11.0,14.0,69,0.00,,---,0.00,VWS V13.01,2013-05-20 23:10:00,
2013-05-20 18:15:00,83.6,72.8,29.84,SSW,203,4.0,14.0,70,0.00,,---,0.00,VWS V13.01,2013-05-20 23:15:00,
2013-05-20 18:20:00,83.5,73.1,29.83,SSW,203,7.0,14.0,71,0.00,,---,0.00,VWS V13.01,2013-05-20 23:20:00,
2013-05-20 18:25:00,83.5,73.1,29.83,SSW,203,5.0,11.0,71,0.00,,---,0.00,VWS V13.01,2013-05-20 23:25:00,